sensor_id;sensor_type;location;lat;lon;timestamp;pressure;altitude;pressure_sealevel;temperature
13497;BMP180;6820;49.374;8.452;2022-09-09T00:03:35;100090.31;;;24.63
13497;BMP180;6820;49.374;8.452;2022-09-09T00:07:48;100093.78;;;24.71
13497;BMP180;6820;49.374;8.452;2022-09-09T00:12:01;100092.94;;;24.77
13497;BMP180;6820;49.374;8.452;2022-09-09T00:16:22;100088.66;;;24.87
13497;BMP180;6820;49.374;8.452;2022-09-09T00:20:38;100081.69;;;24.95
13497;BMP180;6820;49.374;8.452;2022-09-09T00:24:50;100073.06;;;24.99
13497;BMP180;6820;49.374;8.452;2022-09-09T00:33:12;100075.66;;;25.02
13497;BMP180;6820;49.374;8.452;2022-09-09T00:37:17;100066.16;;;25.04
13497;BMP180;6820;49.374;8.452;2022-09-09T00:54:15;100067.00;;;25.08
13497;BMP180;6820;49.374;8.452;2022-09-09T00:58:19;100062.69;;;25.08
13497;BMP180;6820;49.374;8.452;2022-09-09T01:02:27;100075.66;;;24.99
13497;BMP180;6820;49.374;8.452;2022-09-09T01:06:34;100085.19;;;24.91
13497;BMP180;6820;49.374;8.452;2022-09-09T01:10:52;100079.97;;;24.82
13497;BMP180;6820;49.374;8.452;2022-09-09T01:15:07;100090.34;;;24.75
13497;BMP180;6820;49.374;8.452;2022-09-09T01:19:23;100091.19;;;24.71
13497;BMP180;6820;49.374;8.452;2022-09-09T01:23:45;100082.53;;;24.63
13497;BMP180;6820;49.374;8.452;2022-09-09T01:28:03;100092.91;;;24.63
13497;BMP180;6820;49.374;8.452;2022-09-09T01:32:38;100086.88;;;24.67
13497;BMP180;6820;49.374;8.452;2022-09-09T01:36:46;100079.97;;;24.64
13497;BMP180;6820;49.374;8.452;2022-09-09T01:40:49;100090.34;;;24.69
13497;BMP180;6820;49.374;8.452;2022-09-09T01:44:56;100084.28;;;24.74
13497;BMP180;6820;49.374;8.452;2022-09-09T01:48:59;100083.44;;;24.79
13497;BMP180;6820;49.374;8.452;2022-09-09T01:53:03;100089.50;;;24.84
13497;BMP180;6820;49.374;8.452;2022-09-09T02:05:41;100081.69;;;24.78
13497;BMP180;6820;49.374;8.452;2022-09-09T02:10:02;100083.44;;;24.74
13497;BMP180;6820;49.374;8.452;2022-09-09T02:14:14;100080.81;;;24.68
13497;BMP180;6820;49.374;8.452;2022-09-09T02:18:35;100077.34;;;24.60
13497;BMP180;6820;49.374;8.452;2022-09-09T02:22:41;100075.66;;;24.53
13497;BMP180;6820;49.374;8.452;2022-09-09T02:26:49;100073.03;;;24.51
13497;BMP180;6820;49.374;8.452;2022-09-09T02:30:53;100075.63;;;24.48
13497;BMP180;6820;49.374;8.452;2022-09-09T02:35:06;100083.41;;;24.48
13497;BMP180;6820;49.374;8.452;2022-09-09T02:39:12;100092.06;;;24.47
13497;BMP180;6820;49.374;8.452;2022-09-09T02:43:15;100089.44;;;24.46
13497;BMP180;6820;49.374;8.452;2022-09-09T02:47:30;100087.72;;;24.42
13497;BMP180;6820;49.374;8.452;2022-09-09T02:52:00;100088.56;;;24.32
13497;BMP180;6820;49.374;8.452;2022-09-09T02:56:06;100081.66;;;24.30
13497;BMP180;6820;49.374;8.452;2022-09-09T03:00:14;100069.56;;;24.33
13497;BMP180;6820;49.374;8.452;2022-09-09T03:04:16;100064.38;;;24.33
13497;BMP180;6820;49.374;8.452;2022-09-09T03:08:18;100075.59;;;24.22
13497;BMP180;6820;49.374;8.452;2022-09-09T03:12:21;100076.41;;;24.08
13497;BMP180;6820;49.374;8.452;2022-09-09T03:16:23;100078.09;;;23.97
13497;BMP180;6820;49.374;8.452;2022-09-09T03:20:28;100075.50;;;23.91
13497;BMP180;6820;49.374;8.452;2022-09-09T03:24:30;100076.34;;;23.88
13497;BMP180;6820;49.374;8.452;2022-09-09T03:28:32;100080.69;;;23.94
13497;BMP180;6820;49.374;8.452;2022-09-09T03:32:36;100082.44;;;23.99
13497;BMP180;6820;49.374;8.452;2022-09-09T03:36:38;100073.81;;;24.02
13497;BMP180;6820;49.374;8.452;2022-09-09T03:40:48;100069.50;;;24.02
13497;BMP180;6820;49.374;8.452;2022-09-09T03:44:50;100086.75;;;24.05
13497;BMP180;6820;49.374;8.452;2022-09-09T03:48:55;100093.69;;;24.07
13497;BMP180;6820;49.374;8.452;2022-09-09T03:52:57;100092.78;;;24.05
13497;BMP180;6820;49.374;8.452;2022-09-09T03:56:59;100091.03;;;24.04
13497;BMP180;6820;49.374;8.452;2022-09-09T04:01:03;100092.78;;;24.02
13497;BMP180;6820;49.374;8.452;2022-09-09T04:05:06;100089.31;;;24.00
13497;BMP180;6820;49.374;8.452;2022-09-09T04:09:08;100081.53;;;23.99
13497;BMP180;6820;49.374;8.452;2022-09-09T04:13:10;100088.44;;;23.98
13497;BMP180;6820;49.374;8.452;2022-09-09T04:17:13;100091.91;;;23.99
13497;BMP180;6820;49.374;8.452;2022-09-09T04:21:16;100093.63;;;23.98
13497;BMP180;6820;49.374;8.452;2022-09-09T04:25:18;100091.03;;;23.98
13497;BMP180;6820;49.374;8.452;2022-09-09T04:29:21;100097.09;;;24.03
13497;BMP180;6820;49.374;8.452;2022-09-09T04:33:23;100097.94;;;23.98
13497;BMP180;6820;49.374;8.452;2022-09-09T04:37:27;100099.66;;;23.93
13497;BMP180;6820;49.374;8.452;2022-09-09T04:41:29;100108.28;;;23.89
13497;BMP180;6820;49.374;8.452;2022-09-09T04:45:33;100103.06;;;23.87
13497;BMP180;6820;49.374;8.452;2022-09-09T04:49:35;100121.19;;;23.83
13497;BMP180;6820;49.374;8.452;2022-09-09T04:53:38;100112.53;;;23.83
13497;BMP180;6820;49.374;8.452;2022-09-09T04:57:40;100112.53;;;23.83
13497;BMP180;6820;49.374;8.452;2022-09-09T05:01:45;100113.41;;;23.80
13497;BMP180;6820;49.374;8.452;2022-09-09T05:05:46;100116.88;;;23.86
13497;BMP180;6820;49.374;8.452;2022-09-09T05:09:48;100122.06;;;23.89
13497;BMP180;6820;49.374;8.452;2022-09-09T05:13:51;100122.06;;;23.88
13497;BMP180;6820;49.374;8.452;2022-09-09T05:17:57;100127.25;;;23.86
13497;BMP180;6820;49.374;8.452;2022-09-09T05:21:59;100131.56;;;23.90
13497;BMP180;6820;49.374;8.452;2022-09-09T05:26:15;100136.78;;;23.96
13497;BMP180;6820;49.374;8.452;2022-09-09T05:30:21;100135.91;;;23.96
13497;BMP180;6820;49.374;8.452;2022-09-09T05:34:25;100145.41;;;24.04
13497;BMP180;6820;49.374;8.452;2022-09-09T05:38:27;100140.28;;;24.13
13497;BMP180;6820;49.374;8.452;2022-09-09T05:42:31;100146.34;;;24.15
13497;BMP180;6820;49.374;8.452;2022-09-09T05:46:34;100149.72;;;24.04
13497;BMP180;6820;49.374;8.452;2022-09-09T05:50:35;100153.16;;;23.95
13497;BMP180;6820;49.374;8.452;2022-09-09T05:54:37;100156.63;;;23.99
13497;BMP180;6820;49.374;8.452;2022-09-09T05:58:39;100170.44;;;24.04
13497;BMP180;6820;49.374;8.452;2022-09-09T06:02:50;100161.84;;;24.08
13497;BMP180;6820;49.374;8.452;2022-09-09T06:06:54;100165.31;;;24.13
13497;BMP180;6820;49.374;8.452;2022-09-09T06:11:05;100157.56;;;24.17
13497;BMP180;6820;49.374;8.452;2022-09-09T06:15:07;100154.19;;;24.36
13497;BMP180;6820;49.374;8.452;2022-09-09T06:19:10;100160.25;;;24.46
13497;BMP180;6820;49.374;8.452;2022-09-09T06:23:13;100154.25;;;24.56
13497;BMP180;6820;49.374;8.452;2022-09-09T06:27:15;100155.13;;;24.67
13497;BMP180;6820;49.374;8.452;2022-09-09T06:31:18;100160.31;;;24.69
13497;BMP180;6820;49.374;8.452;2022-09-09T06:35:31;100159.44;;;24.64
13497;BMP180;6820;49.374;8.452;2022-09-09T06:39:33;100162.91;;;24.75
13497;BMP180;6820;49.374;8.452;2022-09-09T06:43:35;100169.84;;;24.92
13497;BMP180;6820;49.374;8.452;2022-09-09T06:47:37;100165.53;;;25.07
13497;BMP180;6820;49.374;8.452;2022-09-09T06:51:38;100163.81;;;25.19
13497;BMP180;6820;49.374;8.452;2022-09-09T06:55:46;100167.25;;;25.08
13497;BMP180;6820;49.374;8.452;2022-09-09T06:59:48;100171.59;;;25.02
13497;BMP180;6820;49.374;8.452;2022-09-09T07:03:51;100175.91;;;25.03
13497;BMP180;6820;49.374;8.452;2022-09-09T07:07:54;100172.47;;;25.02
13497;BMP180;6820;49.374;8.452;2022-09-09T07:11:56;100172.47;;;25.09
13497;BMP180;6820;49.374;8.452;2022-09-09T07:16:12;100172.44;;;25.43
13497;BMP180;6820;49.374;8.452;2022-09-09T07:23:50;100177.50;;;26.01
13497;BMP180;6820;49.374;8.452;2022-09-09T07:27:53;100172.25;;;26.22
13497;BMP180;6820;49.374;8.452;2022-09-09T07:31:54;100167.84;;;26.32
13497;BMP180;6820;49.374;8.452;2022-09-09T07:36:16;100165.25;;;26.34
13497;BMP180;6820;49.374;8.452;2022-09-09T07:40:18;100169.59;;;26.36
13497;BMP180;6820;49.374;8.452;2022-09-09T07:44:23;100173.06;;;26.34
13497;BMP180;6820;49.374;8.452;2022-09-09T07:48:54;100184.31;;;26.39
13497;BMP180;6820;49.374;8.452;2022-09-09T07:53:01;100173.88;;;26.42
13497;BMP180;6820;49.374;8.452;2022-09-09T07:57:04;100183.31;;;26.58
13497;BMP180;6820;49.374;8.452;2022-09-09T08:05:14;100183.97;;;26.92
13497;BMP180;6820;49.374;8.452;2022-09-09T08:09:16;100176.94;;;27.06
13497;BMP180;6820;49.374;8.452;2022-09-09T08:13:20;100187.25;;;27.13
13497;BMP180;6820;49.374;8.452;2022-09-09T08:17:22;100190.84;;;26.99
13497;BMP180;6820;49.374;8.452;2022-09-09T08:21:27;100184.78;;;26.98
13497;BMP180;6820;49.374;8.452;2022-09-09T08:25:32;100190.88;;;26.96
13497;BMP180;6820;49.374;8.452;2022-09-09T08:29:35;100185.56;;;27.09
13497;BMP180;6820;49.374;8.452;2022-09-09T08:33:41;100185.44;;;27.24
13497;BMP180;6820;49.374;8.452;2022-09-09T08:37:43;100188.84;;;27.30
13497;BMP180;6820;49.374;8.452;2022-09-09T08:46:16;100196.50;;;27.50
13497;BMP180;6820;49.374;8.452;2022-09-09T08:50:22;100184.41;;;27.46
13497;BMP180;6820;49.374;8.452;2022-09-09T08:54:33;100199.91;;;27.56
13497;BMP180;6820;49.374;8.452;2022-09-09T08:58:54;100198.91;;;27.70
13497;BMP180;6820;49.374;8.452;2022-09-09T09:08:36;100179.75;;;27.74
13497;BMP180;6820;49.374;8.452;2022-09-09T09:12:36;100179.16;;;27.52
13497;BMP180;6820;49.374;8.452;2022-09-09T09:21:10;100174.19;;;28.08
13497;BMP180;6820;49.374;8.452;2022-09-09T09:25:23;100174.59;;;28.41
13497;BMP180;6820;49.374;8.452;2022-09-09T09:29:29;100162.59;;;28.91
13497;BMP180;6820;49.374;8.452;2022-09-09T09:33:44;100164.25;;;29.48
13497;BMP180;6820;49.374;8.452;2022-09-09T09:37:47;100165.59;;;29.69
13497;BMP180;6820;49.374;8.452;2022-09-09T09:42:11;100168.69;;;29.43
13497;BMP180;6820;49.374;8.452;2022-09-09T09:46:23;100186.81;;;29.00
13497;BMP180;6820;49.374;8.452;2022-09-09T09:50:32;100209.19;;;28.58
13497;BMP180;6820;49.374;8.452;2022-09-09T09:54:38;100213.44;;;27.92
13497;BMP180;6820;49.374;8.452;2022-09-09T10:02:50;100208.91;;;28.10
13497;BMP180;6820;49.374;8.452;2022-09-09T10:06:57;100204.94;;;28.49
13497;BMP180;6820;49.374;8.452;2022-09-09T10:19:34;100189.66;;;28.23
13497;BMP180;6820;49.374;8.452;2022-09-09T10:37:16;100169.78;;;28.12
13497;BMP180;6820;49.374;8.452;2022-09-09T10:50:43;100157.88;;;27.93
13497;BMP180;6820;49.374;8.452;2022-09-09T10:55:13;100153.47;;;27.98
13497;BMP180;6820;49.374;8.452;2022-09-09T10:59:20;100140.75;;;28.38
13497;BMP180;6820;49.374;8.452;2022-09-09T11:03:26;100138.31;;;28.87
13497;BMP180;6820;49.374;8.452;2022-09-09T11:07:39;100141.84;;;29.36
13497;BMP180;6820;49.374;8.452;2022-09-09T11:11:46;100136.09;;;29.64
13497;BMP180;6820;49.374;8.452;2022-09-09T11:15:53;100142.69;;;29.38
13497;BMP180;6820;49.374;8.452;2022-09-09T11:19:56;100144.03;;;29.11
13497;BMP180;6820;49.374;8.452;2022-09-09T11:24:06;100133.78;;;28.98
13497;BMP180;6820;49.374;8.452;2022-09-09T11:41:34;100122.28;;;30.01
13497;BMP180;6820;49.374;8.452;2022-09-09T11:45:39;100119.09;;;30.27
13497;BMP180;6820;49.374;8.452;2022-09-09T11:49:42;100113.78;;;30.67
13497;BMP180;6820;49.374;8.452;2022-09-09T11:53:51;100111.78;;;30.80
13497;BMP180;6820;49.374;8.452;2022-09-09T12:02:14;100105.47;;;30.87
13497;BMP180;6820;49.374;8.452;2022-09-09T12:06:26;100110.81;;;30.46
13497;BMP180;6820;49.374;8.452;2022-09-09T12:10:32;100102.00;;;30.11
13497;BMP180;6820;49.374;8.452;2022-09-09T12:14:36;100107.56;;;30.37
13497;BMP180;6820;49.374;8.452;2022-09-09T12:18:39;100110.38;;;31.00
13497;BMP180;6820;49.374;8.452;2022-09-09T12:22:50;100121.72;;;31.35
13497;BMP180;6820;49.374;8.452;2022-09-09T12:27:00;100119.44;;;31.53
13497;BMP180;6820;49.374;8.452;2022-09-09T12:35:23;100094.81;;;31.28
13497;BMP180;6820;49.374;8.452;2022-09-09T12:39:38;100101.22;;;31.16
13497;BMP180;6820;49.374;8.452;2022-09-09T12:43:43;100100.66;;;30.70
13497;BMP180;6820;49.374;8.452;2022-09-09T12:51:52;100092.81;;;30.33
13497;BMP180;6820;49.374;8.452;2022-09-09T12:55:57;100093.72;;;30.32
13497;BMP180;6820;49.374;8.452;2022-09-09T13:00:26;100092.69;;;30.76
13497;BMP180;6820;49.374;8.452;2022-09-09T13:04:26;100091.78;;;31.10
13497;BMP180;6820;49.374;8.452;2022-09-09T13:08:27;100107.22;;;31.21
13497;BMP180;6820;49.374;8.452;2022-09-09T13:12:29;100096.47;;;31.32
13497;BMP180;6820;49.374;8.452;2022-09-09T13:16:33;100112.13;;;31.34
13497;BMP180;6820;49.374;8.452;2022-09-09T13:20:47;100119.28;;;30.93
13497;BMP180;6820;49.374;8.452;2022-09-09T13:24:59;100114.31;;;30.45
13497;BMP180;6820;49.374;8.452;2022-09-09T13:29:16;100105.16;;;30.28
13497;BMP180;6820;49.374;8.452;2022-09-09T13:33:22;100107.84;;;30.61
13497;BMP180;6820;49.374;8.452;2022-09-09T13:37:33;100103.03;;;30.43
13497;BMP180;6820;49.374;8.452;2022-09-09T13:41:41;100096.25;;;29.96
13497;BMP180;6820;49.374;8.452;2022-09-09T13:45:52;100106.94;;;29.84
13497;BMP180;6820;49.374;8.452;2022-09-09T13:49:55;100090.06;;;30.00
13497;BMP180;6820;49.374;8.452;2022-09-09T13:53:56;100084.97;;;30.69
13497;BMP180;6820;49.374;8.452;2022-09-09T13:58:01;100078.63;;;31.45
13497;BMP180;6820;49.374;8.452;2022-09-09T14:02:02;100080.84;;;31.91
13497;BMP180;6820;49.374;8.452;2022-09-09T14:06:04;100088.28;;;32.04
13497;BMP180;6820;49.374;8.452;2022-09-09T14:10:06;100070.16;;;31.67
13497;BMP180;6820;49.374;8.452;2022-09-09T14:14:08;100065.78;;;31.37
13497;BMP180;6820;49.374;8.452;2022-09-09T14:18:11;100073.22;;;30.86
13497;BMP180;6820;49.374;8.452;2022-09-09T14:22:14;100066.63;;;30.70
13497;BMP180;6820;49.374;8.452;2022-09-09T14:26:16;100052.69;;;30.71
13497;BMP180;6820;49.374;8.452;2022-09-09T14:30:17;100060.56;;;30.68
13497;BMP180;6820;49.374;8.452;2022-09-09T14:34:19;100052.63;;;30.37
13497;BMP180;6820;49.374;8.452;2022-09-09T14:38:20;100061.22;;;30.03
13497;BMP180;6820;49.374;8.452;2022-09-09T14:42:22;100079.34;;;29.72
13497;BMP180;6820;49.374;8.452;2022-09-09T14:46:23;100091.13;;;29.48
13497;BMP180;6820;49.374;8.452;2022-09-09T14:50:25;100103.78;;;29.21
13497;BMP180;6820;49.374;8.452;2022-09-09T14:54:27;100124.19;;;28.97
13497;BMP180;6820;49.374;8.452;2022-09-09T14:58:32;100125.75;;;28.58
13497;BMP180;6820;49.374;8.452;2022-09-09T15:02:34;100122.66;;;28.28
13497;BMP180;6820;49.374;8.452;2022-09-09T15:06:36;100131.09;;;27.81
13497;BMP180;6820;49.374;8.452;2022-09-09T15:10:41;100167.31;;;27.15
13497;BMP180;6820;49.374;8.452;2022-09-09T15:14:43;100201.75;;;26.01
13497;BMP180;6820;49.374;8.452;2022-09-09T15:18:46;100177.56;;;24.55
13497;BMP180;6820;49.374;8.452;2022-09-09T15:22:48;100159.25;;;24.02
13497;BMP180;6820;49.374;8.452;2022-09-09T15:26:50;100148.84;;;23.88
13497;BMP180;6820;49.374;8.452;2022-09-09T15:30:52;100145.34;;;23.82
13497;BMP180;6820;49.374;8.452;2022-09-09T15:34:54;100135.06;;;24.04
13497;BMP180;6820;49.374;8.452;2022-09-09T15:38:56;100124.03;;;24.64
13497;BMP180;6820;49.374;8.452;2022-09-09T15:42:58;100118.84;;;25.26
13497;BMP180;6820;49.374;8.452;2022-09-09T15:47:00;100123.09;;;25.73
13497;BMP180;6820;49.374;8.452;2022-09-09T15:51:04;100133.97;;;26.53
13497;BMP180;6820;49.374;8.452;2022-09-09T15:55:26;100131.81;;;27.05
13497;BMP180;6820;49.374;8.452;2022-09-09T15:59:29;100147.00;;;27.54
13497;BMP180;6820;49.374;8.452;2022-09-09T16:03:36;100152.00;;;27.72
13497;BMP180;6820;49.374;8.452;2022-09-09T16:07:45;100170.50;;;27.47
13497;BMP180;6820;49.374;8.452;2022-09-09T16:11:47;100161.25;;;27.13
13497;BMP180;6820;49.374;8.452;2022-09-09T16:15:55;100160.50;;;26.99
13497;BMP180;6820;49.374;8.452;2022-09-09T16:19:57;100156.25;;;26.87
13497;BMP180;6820;49.374;8.452;2022-09-09T16:24:00;100168.44;;;26.85
13497;BMP180;6820;49.374;8.452;2022-09-09T16:28:03;100153.78;;;26.67
13497;BMP180;6820;49.374;8.452;2022-09-09T16:32:05;100145.16;;;26.61
13497;BMP180;6820;49.374;8.452;2022-09-09T16:36:12;100146.97;;;26.50
13497;BMP180;6820;49.374;8.452;2022-09-09T16:40:13;100144.41;;;26.43
13497;BMP180;6820;49.374;8.452;2022-09-09T16:44:17;100156.53;;;26.44
13497;BMP180;6820;49.374;8.452;2022-09-09T16:48:20;100160.88;;;26.40
13497;BMP180;6820;49.374;8.452;2022-09-09T16:52:22;100165.22;;;26.40
13497;BMP180;6820;49.374;8.452;2022-09-09T16:56:25;100167.81;;;26.38
13497;BMP180;6820;49.374;8.452;2022-09-09T17:00:27;100157.41;;;26.43
13497;BMP180;6820;49.374;8.452;2022-09-09T17:04:29;100155.66;;;26.43
13497;BMP180;6820;49.374;8.452;2022-09-09T17:08:32;100158.28;;;26.42
13497;BMP180;6820;49.374;8.452;2022-09-09T17:12:34;100158.28;;;26.40
13497;BMP180;6820;49.374;8.452;2022-09-09T17:16:42;100147.06;;;26.35
13497;BMP180;6820;49.374;8.452;2022-09-09T17:20:44;100151.47;;;26.23
13497;BMP180;6820;49.374;8.452;2022-09-09T17:24:47;100152.34;;;26.12
13497;BMP180;6820;49.374;8.452;2022-09-09T17:28:49;100167.97;;;26.00
13497;BMP180;6820;49.374;8.452;2022-09-09T17:32:50;100181.88;;;25.92
13497;BMP180;6820;49.374;8.452;2022-09-09T17:36:52;100178.41;;;25.82
13497;BMP180;6820;49.374;8.452;2022-09-09T17:41:15;100179.34;;;25.72
13497;BMP180;6820;49.374;8.452;2022-09-09T17:45:17;100182.78;;;25.69
13497;BMP180;6820;49.374;8.452;2022-09-09T17:49:18;100174.16;;;25.65
13497;BMP180;6820;49.374;8.452;2022-09-09T17:53:20;100188.00;;;25.66
13497;BMP180;6820;49.374;8.452;2022-09-09T17:57:21;100177.63;;;25.58
13497;BMP180;6820;49.374;8.452;2022-09-09T18:01:25;100176.75;;;25.58
13497;BMP180;6820;49.374;8.452;2022-09-09T18:05:28;100188.00;;;25.63
13497;BMP180;6820;49.374;8.452;2022-09-09T18:09:30;100238.19;;;25.57
13497;BMP180;6820;49.374;8.452;2022-09-09T18:13:33;100241.63;;;25.36
13497;BMP180;6820;49.374;8.452;2022-09-09T18:17:35;100252.88;;;25.23
13497;BMP180;6820;49.374;8.452;2022-09-09T18:21:37;100258.06;;;25.14
13497;BMP180;6820;49.374;8.452;2022-09-09T18:25:39;100276.00;;;24.47
13497;BMP180;6820;49.374;8.452;2022-09-09T18:29:41;100281.72;;;23.93
13497;BMP180;6820;49.374;8.452;2022-09-09T18:33:46;100278.84;;;23.53
13497;BMP180;6820;49.374;8.452;2022-09-09T18:37:49;100294.94;;;23.23
13497;BMP180;6820;49.374;8.452;2022-09-09T18:41:57;100286.22;;;23.12
13497;BMP180;6820;49.374;8.452;2022-09-09T18:46:04;100292.25;;;23.11
13497;BMP180;6820;49.374;8.452;2022-09-09T18:50:05;100291.34;;;23.11
13497;BMP180;6820;49.374;8.452;2022-09-09T18:54:12;100272.63;;;23.35
13497;BMP180;6820;49.374;8.452;2022-09-09T18:58:14;100277.22;;;23.64
13497;BMP180;6820;49.374;8.452;2022-09-09T19:02:15;100282.53;;;23.84
13497;BMP180;6820;49.374;8.452;2022-09-09T19:06:24;100274.84;;;24.01
13497;BMP180;6820;49.374;8.452;2022-09-09T19:10:26;100276.66;;;24.13
13497;BMP180;6820;49.374;8.452;2022-09-09T19:14:28;100281.94;;;24.23
13497;BMP180;6820;49.374;8.452;2022-09-09T19:18:30;100281.13;;;24.31
13497;BMP180;6820;49.374;8.452;2022-09-09T19:22:31;100294.09;;;24.39
13497;BMP180;6820;49.374;8.452;2022-09-09T19:26:36;100294.13;;;24.42
13497;BMP180;6820;49.374;8.452;2022-09-09T19:30:41;100276.84;;;24.46
13497;BMP180;6820;49.374;8.452;2022-09-09T19:34:47;100277.75;;;24.50
13497;BMP180;6820;49.374;8.452;2022-09-09T19:38:52;100269.13;;;24.52
13497;BMP180;6820;49.374;8.452;2022-09-09T19:42:54;100271.72;;;24.52
13497;BMP180;6820;49.374;8.452;2022-09-09T19:46:55;100276.00;;;24.47
13497;BMP180;6820;49.374;8.452;2022-09-09T19:51:05;100282.03;;;24.45
13497;BMP180;6820;49.374;8.452;2022-09-09T19:55:07;100308.84;;;24.47
13497;BMP180;6820;49.374;8.452;2022-09-09T19:59:10;100324.34;;;24.46
13497;BMP180;6820;49.374;8.452;2022-09-09T20:03:12;100321.75;;;24.40
13497;BMP180;6820;49.374;8.452;2022-09-09T20:07:19;100320.81;;;24.26
13497;BMP180;6820;49.374;8.452;2022-09-09T20:11:21;100313.91;;;24.31
13497;BMP180;6820;49.374;8.452;2022-09-09T20:15:24;100313.06;;;24.29
13497;BMP180;6820;49.374;8.452;2022-09-09T20:19:25;100313.03;;;24.30
13497;BMP180;6820;49.374;8.452;2022-09-09T20:23:27;100318.28;;;24.38
13497;BMP180;6820;49.374;8.452;2022-09-09T20:27:29;100314.84;;;24.42
13497;BMP180;6820;49.374;8.452;2022-09-09T20:31:34;100304.50;;;24.45
13497;BMP180;6820;49.374;8.452;2022-09-09T20:35:36;100309.66;;;24.40
13497;BMP180;6820;49.374;8.452;2022-09-09T20:39:38;100310.47;;;24.36
13497;BMP180;6820;49.374;8.452;2022-09-09T20:43:47;100312.22;;;24.34
13497;BMP180;6820;49.374;8.452;2022-09-09T20:47:49;100313.91;;;24.31
13497;BMP180;6820;49.374;8.452;2022-09-09T20:51:52;100309.63;;;24.36
13497;BMP180;6820;49.374;8.452;2022-09-09T20:55:58;100310.53;;;24.39
13497;BMP180;6820;49.374;8.452;2022-09-09T21:00:00;100309.63;;;24.39
13497;BMP180;6820;49.374;8.452;2022-09-09T21:04:02;100313.97;;;24.41
13497;BMP180;6820;49.374;8.452;2022-09-09T21:08:04;100314.00;;;24.47
13497;BMP180;6820;49.374;8.452;2022-09-09T21:12:05;100317.47;;;24.53
13497;BMP180;6820;49.374;8.452;2022-09-09T21:16:11;100305.41;;;24.52
13497;BMP180;6820;49.374;8.452;2022-09-09T21:20:13;100306.25;;;24.47
13497;BMP180;6820;49.374;8.452;2022-09-09T21:24:15;100302.72;;;24.41
13497;BMP180;6820;49.374;8.452;2022-09-09T21:28:17;100302.75;;;24.42
13497;BMP180;6820;49.374;8.452;2022-09-09T21:32:18;100299.31;;;24.46
13497;BMP180;6820;49.374;8.452;2022-09-09T21:36:21;100298.47;;;24.47
13497;BMP180;6820;49.374;8.452;2022-09-09T21:40:23;100288.94;;;24.45
13497;BMP180;6820;49.374;8.452;2022-09-09T21:44:26;100292.41;;;24.42
13497;BMP180;6820;49.374;8.452;2022-09-09T21:48:28;100287.19;;;24.41
13497;BMP180;6820;49.374;8.452;2022-09-09T21:52:30;100290.59;;;24.31
13497;BMP180;6820;49.374;8.452;2022-09-09T21:56:31;100284.53;;;24.23
13497;BMP180;6820;49.374;8.452;2022-09-09T22:00:33;100278.44;;;24.18
13497;BMP180;6820;49.374;8.452;2022-09-09T22:04:36;100277.53;;;24.14
13497;BMP180;6820;49.374;8.452;2022-09-09T22:08:37;100283.53;;;24.09
13497;BMP180;6820;49.374;8.452;2022-09-09T22:12:39;100288.69;;;24.03
13497;BMP180;6820;49.374;8.452;2022-09-09T22:16:40;100292.97;;;23.98
13497;BMP180;6820;49.374;8.452;2022-09-09T22:20:43;100296.41;;;23.97
13497;BMP180;6820;49.374;8.452;2022-09-09T22:24:45;100299.00;;;23.97
13497;BMP180;6820;49.374;8.452;2022-09-09T22:28:47;100303.34;;;24.00
13497;BMP180;6820;49.374;8.452;2022-09-09T22:32:48;100308.56;;;24.06
13497;BMP180;6820;49.374;8.452;2022-09-09T22:36:51;100305.97;;;24.06
13497;BMP180;6820;49.374;8.452;2022-09-09T22:40:52;100310.28;;;24.08
13497;BMP180;6820;49.374;8.452;2022-09-09T22:44:54;100299.06;;;24.08
13497;BMP180;6820;49.374;8.452;2022-09-09T22:48:56;100307.66;;;23.96
13497;BMP180;6820;49.374;8.452;2022-09-09T22:52:58;100308.47;;;23.92
13497;BMP180;6820;49.374;8.452;2022-09-09T22:57:00;100313.59;;;23.86
13497;BMP180;6820;49.374;8.452;2022-09-09T23:01:11;100299.75;;;23.79
13497;BMP180;6820;49.374;8.452;2022-09-09T23:05:14;100297.94;;;23.72
13497;BMP180;6820;49.374;8.452;2022-09-09T23:09:16;100299.66;;;23.65
13497;BMP180;6820;49.374;8.452;2022-09-09T23:13:18;100296.16;;;23.59
13497;BMP180;6820;49.374;8.452;2022-09-09T23:17:20;100298.69;;;23.56
13497;BMP180;6820;49.374;8.452;2022-09-09T23:21:22;100307.34;;;23.61
13497;BMP180;6820;49.374;8.452;2022-09-09T23:25:26;100303.09;;;23.69
13497;BMP180;6820;49.374;8.452;2022-09-09T23:29:28;100307.44;;;23.68
13497;BMP180;6820;49.374;8.452;2022-09-09T23:33:29;100307.41;;;23.67
13497;BMP180;6820;49.374;8.452;2022-09-09T23:37:32;100309.13;;;23.66
13497;BMP180;6820;49.374;8.452;2022-09-09T23:41:36;100302.22;;;23.65
13497;BMP180;6820;49.374;8.452;2022-09-09T23:45:37;100307.41;;;23.65
13497;BMP180;6820;49.374;8.452;2022-09-09T23:49:39;100309.97;;;23.59
13497;BMP180;6820;49.374;8.452;2022-09-09T23:53:40;100311.59;;;23.53
13497;BMP180;6820;49.374;8.452;2022-09-09T23:57:42;100316.78;;;23.52
